Terminal Aerodrome Forecast
Issued by NWS Albuquerque, NM

Home | Current Version | Previous Version | Text Only | Print | Product List | Glossary On
Versions: 1 2 3 4 5 6 7 8 9 10 11 12 13 14 15
000
FTUS45 KABQ 241139
TAFABQ
TAF
KABQ 241139Z 2412/2512 VRB06KT P6SM SCT120
     FM242300 08011KT P6SM VCSH BKN100
      TEMPO 2501/2504 VRB20G30KT 6SM -TSRA BKN090CB
     FM250400 08011G21KT P6SM VCSH FEW040 BKN100
     FM250900 07010KT P6SM BKN100=

USA.gov is the U.S. government's official web portal to all federal, state and local government web resources and services.